sensor_id;sensor_type;location;lat;lon;timestamp;P1;durP1;ratioP1;P2;durP2;ratioP2
10947;SDS011;5526;42.070;24.752;2023-02-15T00:01:46;14.60;;;13.10;;
10947;SDS011;5526;42.070;24.752;2023-02-15T00:04:14;14.15;;;12.70;;
10947;SDS011;5526;42.070;24.752;2023-02-15T00:06:42;14.32;;;12.82;;
10947;SDS011;5526;42.070;24.752;2023-02-15T00:09:09;15.07;;;13.57;;
10947;SDS011;5526;42.070;24.752;2023-02-15T00:11:37;15.13;;;13.63;;
10947;SDS011;5526;42.070;24.752;2023-02-15T00:14:15;15.45;;;13.85;;
10947;SDS011;5526;42.070;24.752;2023-02-15T00:16:45;16.15;;;13.15;;
10947;SDS011;5526;42.070;24.752;2023-02-15T00:19:14;14.93;;;12.57;;
10947;SDS011;5526;42.070;24.752;2023-02-15T00:21:42;15.25;;;13.65;;
10947;SDS011;5526;42.070;24.752;2023-02-15T00:24:10;13.98;;;12.48;;
10947;SDS011;5526;42.070;24.752;2023-02-15T00:26:39;47.63;;;35.40;;
10947;SDS011;5526;42.070;24.752;2023-02-15T00:29:06;17.02;;;15.32;;
10947;SDS011;5526;42.070;24.752;2023-02-15T00:31:35;15.27;;;13.68;;
10947;SDS011;5526;42.070;24.752;2023-02-15T00:34:03;15.60;;;14.00;;
10947;SDS011;5526;42.070;24.752;2023-02-15T00:36:30;15.95;;;13.43;;
10947;SDS011;5526;42.070;24.752;2023-02-15T00:38:57;16.38;;;14.65;;
10947;SDS011;5526;42.070;24.752;2023-02-15T00:41:24;17.20;;;15.45;;
10947;SDS011;5526;42.070;24.752;2023-02-15T00:43:51;17.13;;;15.20;;
10947;SDS011;5526;42.070;24.752;2023-02-15T00:46:18;16.60;;;14.90;;
10947;SDS011;5526;42.070;24.752;2023-02-15T00:48:47;16.63;;;14.65;;
10947;SDS011;5526;42.070;24.752;2023-02-15T00:51:14;16.42;;;14.73;;
10947;SDS011;5526;42.070;24.752;2023-02-15T00:53:42;17.52;;;14.82;;
10947;SDS011;5526;42.070;24.752;2023-02-15T00:56:09;16.23;;;14.52;;
10947;SDS011;5526;42.070;24.752;2023-02-15T00:58:36;16.50;;;14.80;;
10947;SDS011;5526;42.070;24.752;2023-02-15T01:01:04;15.85;;;14.15;;
10947;SDS011;5526;42.070;24.752;2023-02-15T01:03:33;15.98;;;14.30;;
10947;SDS011;5526;42.070;24.752;2023-02-15T01:06:02;18.27;;;16.27;;
10947;SDS011;5526;42.070;24.752;2023-02-15T01:08:30;17.63;;;15.73;;
10947;SDS011;5526;42.070;24.752;2023-02-15T01:11:02;15.90;;;14.23;;
10947;SDS011;5526;42.070;24.752;2023-02-15T01:13:30;18.63;;;15.95;;
10947;SDS011;5526;42.070;24.752;2023-02-15T01:15:57;16.65;;;14.77;;
10947;SDS011;5526;42.070;24.752;2023-02-15T01:18:24;16.13;;;14.43;;
10947;SDS011;5526;42.070;24.752;2023-02-15T01:20:51;15.95;;;14.25;;
10947;SDS011;5526;42.070;24.752;2023-02-15T01:23:20;16.75;;;14.98;;
10947;SDS011;5526;42.070;24.752;2023-02-15T01:25:47;18.08;;;15.48;;
10947;SDS011;5526;42.070;24.752;2023-02-15T01:28:14;18.35;;;15.65;;
10947;SDS011;5526;42.070;24.752;2023-02-15T01:30:41;18.85;;;15.88;;
10947;SDS011;5526;42.070;24.752;2023-02-15T01:33:09;17.05;;;14.98;;
10947;SDS011;5526;42.070;24.752;2023-02-15T01:35:43;16.80;;;15.00;;
10947;SDS011;5526;42.070;24.752;2023-02-15T01:38:10;16.52;;;14.77;;
10947;SDS011;5526;42.070;24.752;2023-02-15T01:40:39;17.65;;;15.32;;
10947;SDS011;5526;42.070;24.752;2023-02-15T01:43:09;15.80;;;14.10;;
10947;SDS011;5526;42.070;24.752;2023-02-15T01:45:37;15.57;;;13.73;;
10947;SDS011;5526;42.070;24.752;2023-02-15T01:48:05;16.30;;;14.63;;
10947;SDS011;5526;42.070;24.752;2023-02-15T01:50:40;17.50;;;15.27;;
10947;SDS011;5526;42.070;24.752;2023-02-15T01:53:12;16.63;;;14.50;;
10947;SDS011;5526;42.070;24.752;2023-02-15T01:55:45;16.05;;;14.30;;
10947;SDS011;5526;42.070;24.752;2023-02-15T01:58:16;17.73;;;15.23;;
10947;SDS011;5526;42.070;24.752;2023-02-15T02:00:45;18.23;;;16.08;;
10947;SDS011;5526;42.070;24.752;2023-02-15T02:03:12;18.05;;;16.10;;
10947;SDS011;5526;42.070;24.752;2023-02-15T02:05:39;17.98;;;15.65;;
10947;SDS011;5526;42.070;24.752;2023-02-15T02:08:07;18.55;;;16.27;;
10947;SDS011;5526;42.070;24.752;2023-02-15T02:10:35;19.02;;;15.23;;
10947;SDS011;5526;42.070;24.752;2023-02-15T02:13:05;18.10;;;16.02;;
10947;SDS011;5526;42.070;24.752;2023-02-15T02:15:36;17.80;;;15.90;;
10947;SDS011;5526;42.070;24.752;2023-02-15T02:18:13;18.38;;;15.50;;
10947;SDS011;5526;42.070;24.752;2023-02-15T02:20:58;17.48;;;15.25;;
10947;SDS011;5526;42.070;24.752;2023-02-15T02:23:38;16.95;;;15.15;;
10947;SDS011;5526;42.070;24.752;2023-02-15T02:26:32;16.58;;;14.75;;
10947;SDS011;5526;42.070;24.752;2023-02-15T02:32:48;18.77;;;16.58;;
10947;SDS011;5526;42.070;24.752;2023-02-15T02:35:29;17.67;;;15.30;;
10947;SDS011;5526;42.070;24.752;2023-02-15T02:38:03;17.77;;;15.50;;
10947;SDS011;5526;42.070;24.752;2023-02-15T02:40:41;17.98;;;16.08;;
10947;SDS011;5526;42.070;24.752;2023-02-15T02:43:19;17.63;;;15.73;;
10947;SDS011;5526;42.070;24.752;2023-02-15T02:45:55;18.50;;;15.07;;
10947;SDS011;5526;42.070;24.752;2023-02-15T02:48:27;18.75;;;16.45;;
10947;SDS011;5526;42.070;24.752;2023-02-15T02:50:58;18.63;;;16.63;;
10947;SDS011;5526;42.070;24.752;2023-02-15T02:53:25;18.30;;;16.02;;
10947;SDS011;5526;42.070;24.752;2023-02-15T02:55:55;18.55;;;16.35;;
10947;SDS011;5526;42.070;24.752;2023-02-15T02:58:26;19.35;;;17.15;;
10947;SDS011;5526;42.070;24.752;2023-02-15T03:00:59;17.67;;;15.00;;
10947;SDS011;5526;42.070;24.752;2023-02-15T03:03:34;17.25;;;14.95;;
10947;SDS011;5526;42.070;24.752;2023-02-15T03:06:06;20.13;;;17.60;;
10947;SDS011;5526;42.070;24.752;2023-02-15T03:08:42;19.10;;;16.63;;
10947;SDS011;5526;42.070;24.752;2023-02-15T03:11:13;19.38;;;17.08;;
10947;SDS011;5526;42.070;24.752;2023-02-15T03:13:41;20.38;;;18.08;;
10947;SDS011;5526;42.070;24.752;2023-02-15T03:16:10;20.90;;;17.95;;
10947;SDS011;5526;42.070;24.752;2023-02-15T03:18:54;20.55;;;18.35;;
10947;SDS011;5526;42.070;24.752;2023-02-15T03:21:26;19.00;;;16.63;;
10947;SDS011;5526;42.070;24.752;2023-02-15T03:23:58;20.13;;;17.17;;
10947;SDS011;5526;42.070;24.752;2023-02-15T03:26:29;21.08;;;17.83;;
10947;SDS011;5526;42.070;24.752;2023-02-15T03:28:58;18.75;;;16.63;;
10947;SDS011;5526;42.070;24.752;2023-02-15T03:31:29;20.65;;;17.70;;
10947;SDS011;5526;42.070;24.752;2023-02-15T03:34:03;20.25;;;18.02;;
10947;SDS011;5526;42.070;24.752;2023-02-15T03:36:34;19.98;;;16.80;;
10947;SDS011;5526;42.070;24.752;2023-02-15T03:39:10;18.58;;;16.58;;
10947;SDS011;5526;42.070;24.752;2023-02-15T03:41:46;19.02;;;16.80;;
10947;SDS011;5526;42.070;24.752;2023-02-15T03:44:23;18.40;;;15.45;;
10947;SDS011;5526;42.070;24.752;2023-02-15T03:46:56;18.98;;;16.30;;
10947;SDS011;5526;42.070;24.752;2023-02-15T03:49:30;18.95;;;16.38;;
10947;SDS011;5526;42.070;24.752;2023-02-15T03:52:03;17.83;;;15.93;;
10947;SDS011;5526;42.070;24.752;2023-02-15T03:54:33;18.80;;;16.40;;
10947;SDS011;5526;42.070;24.752;2023-02-15T03:57:15;19.13;;;15.93;;
10947;SDS011;5526;42.070;24.752;2023-02-15T04:00:03;19.85;;;16.40;;
10947;SDS011;5526;42.070;24.752;2023-02-15T04:02:56;18.42;;;15.95;;
10947;SDS011;5526;42.070;24.752;2023-02-15T04:05:35;18.90;;;16.90;;
10947;SDS011;5526;42.070;24.752;2023-02-15T04:08:02;20.20;;;16.95;;
10947;SDS011;5526;42.070;24.752;2023-02-15T04:10:30;21.23;;;17.88;;
10947;SDS011;5526;42.070;24.752;2023-02-15T04:13:14;20.67;;;17.88;;
10947;SDS011;5526;42.070;24.752;2023-02-15T04:15:41;20.27;;;17.55;;
10947;SDS011;5526;42.070;24.752;2023-02-15T04:18:25;20.05;;;17.25;;
10947;SDS011;5526;42.070;24.752;2023-02-15T04:21:11;19.23;;;17.23;;
10947;SDS011;5526;42.070;24.752;2023-02-15T04:23:55;19.60;;;16.55;;
10947;SDS011;5526;42.070;24.752;2023-02-15T04:26:40;18.98;;;16.98;;
10947;SDS011;5526;42.070;24.752;2023-02-15T04:29:07;20.58;;;17.60;;
10947;SDS011;5526;42.070;24.752;2023-02-15T04:31:34;20.73;;;17.30;;
10947;SDS011;5526;42.070;24.752;2023-02-15T04:34:01;21.30;;;18.30;;
10947;SDS011;5526;42.070;24.752;2023-02-15T04:36:29;19.30;;;17.25;;
10947;SDS011;5526;42.070;24.752;2023-02-15T04:38:56;22.10;;;17.95;;
10947;SDS011;5526;42.070;24.752;2023-02-15T04:41:23;19.83;;;17.50;;
10947;SDS011;5526;42.070;24.752;2023-02-15T04:43:50;20.02;;;16.88;;
10947;SDS011;5526;42.070;24.752;2023-02-15T04:46:17;19.92;;;16.95;;
10947;SDS011;5526;42.070;24.752;2023-02-15T04:48:43;19.23;;;17.15;;
10947;SDS011;5526;42.070;24.752;2023-02-15T04:51:10;19.60;;;17.20;;
10947;SDS011;5526;42.070;24.752;2023-02-15T04:53:39;19.48;;;17.38;;
10947;SDS011;5526;42.070;24.752;2023-02-15T04:56:06;19.50;;;17.15;;
10947;SDS011;5526;42.070;24.752;2023-02-15T04:58:33;20.35;;;18.00;;
10947;SDS011;5526;42.070;24.752;2023-02-15T05:01:00;21.27;;;18.98;;
10947;SDS011;5526;42.070;24.752;2023-02-15T05:03:27;19.20;;;16.77;;
10947;SDS011;5526;42.070;24.752;2023-02-15T05:05:54;18.30;;;16.40;;
10947;SDS011;5526;42.070;24.752;2023-02-15T05:08:21;21.65;;;16.98;;
10947;SDS011;5526;42.070;24.752;2023-02-15T05:10:49;17.77;;;15.95;;
10947;SDS011;5526;42.070;24.752;2023-02-15T05:13:16;19.83;;;17.33;;
10947;SDS011;5526;42.070;24.752;2023-02-15T05:15:46;18.33;;;16.00;;
10947;SDS011;5526;42.070;24.752;2023-02-15T05:18:15;20.65;;;16.23;;
10947;SDS011;5526;42.070;24.752;2023-02-15T05:20:45;20.75;;;17.52;;
10947;SDS011;5526;42.070;24.752;2023-02-15T05:23:13;20.42;;;17.45;;
10947;SDS011;5526;42.070;24.752;2023-02-15T05:25:41;19.45;;;16.38;;
10947;SDS011;5526;42.070;24.752;2023-02-15T05:28:31;18.90;;;16.80;;
10947;SDS011;5526;42.070;24.752;2023-02-15T05:31:00;18.27;;;16.17;;
10947;SDS011;5526;42.070;24.752;2023-02-15T05:33:33;20.40;;;17.20;;
10947;SDS011;5526;42.070;24.752;2023-02-15T05:36:01;18.65;;;16.70;;
10947;SDS011;5526;42.070;24.752;2023-02-15T05:38:29;19.40;;;16.50;;
10947;SDS011;5526;42.070;24.752;2023-02-15T05:40:56;19.30;;;17.13;;
10947;SDS011;5526;42.070;24.752;2023-02-15T05:43:24;19.52;;;16.80;;
10947;SDS011;5526;42.070;24.752;2023-02-15T05:45:53;16.98;;;15.18;;
10947;SDS011;5526;42.070;24.752;2023-02-15T05:48:21;18.48;;;15.82;;
10947;SDS011;5526;42.070;24.752;2023-02-15T05:50:56;18.08;;;15.52;;
10947;SDS011;5526;42.070;24.752;2023-02-15T05:53:24;18.52;;;16.13;;
10947;SDS011;5526;42.070;24.752;2023-02-15T05:55:51;17.75;;;15.85;;
10947;SDS011;5526;42.070;24.752;2023-02-15T05:58:19;16.92;;;14.93;;
10947;SDS011;5526;42.070;24.752;2023-02-15T06:00:46;17.75;;;15.88;;
10947;SDS011;5526;42.070;24.752;2023-02-15T06:03:14;18.08;;;16.15;;
10947;SDS011;5526;42.070;24.752;2023-02-15T06:05:41;18.02;;;16.13;;
10947;SDS011;5526;42.070;24.752;2023-02-15T06:08:09;19.10;;;15.68;;
10947;SDS011;5526;42.070;24.752;2023-02-15T06:10:36;17.48;;;15.65;;
10947;SDS011;5526;42.070;24.752;2023-02-15T06:13:03;17.98;;;16.08;;
10947;SDS011;5526;42.070;24.752;2023-02-15T06:15:30;18.35;;;15.90;;
10947;SDS011;5526;42.070;24.752;2023-02-15T06:17:57;17.33;;;14.70;;
10947;SDS011;5526;42.070;24.752;2023-02-15T06:20:25;17.83;;;15.93;;
10947;SDS011;5526;42.070;24.752;2023-02-15T06:22:52;18.95;;;16.95;;
10947;SDS011;5526;42.070;24.752;2023-02-15T06:25:19;18.10;;;14.93;;
10947;SDS011;5526;42.070;24.752;2023-02-15T06:27:46;17.70;;;14.95;;
10947;SDS011;5526;42.070;24.752;2023-02-15T06:30:14;17.52;;;15.73;;
10947;SDS011;5526;42.070;24.752;2023-02-15T06:32:41;17.80;;;15.52;;
10947;SDS011;5526;42.070;24.752;2023-02-15T06:35:08;20.65;;;15.32;;
10947;SDS011;5526;42.070;24.752;2023-02-15T06:37:37;17.27;;;14.63;;
10947;SDS011;5526;42.070;24.752;2023-02-15T06:40:05;16.48;;;14.52;;
10947;SDS011;5526;42.070;24.752;2023-02-15T06:42:33;16.75;;;14.05;;
10947;SDS011;5526;42.070;24.752;2023-02-15T06:45:00;19.45;;;14.27;;
10947;SDS011;5526;42.070;24.752;2023-02-15T06:47:28;17.75;;;13.95;;
10947;SDS011;5526;42.070;24.752;2023-02-15T06:49:55;15.90;;;14.13;;
10947;SDS011;5526;42.070;24.752;2023-02-15T06:52:22;17.35;;;12.98;;
10947;SDS011;5526;42.070;24.752;2023-02-15T06:54:51;15.55;;;12.70;;
10947;SDS011;5526;42.070;24.752;2023-02-15T06:57:18;15.10;;;12.52;;
10947;SDS011;5526;42.070;24.752;2023-02-15T06:59:45;15.68;;;12.75;;
10947;SDS011;5526;42.070;24.752;2023-02-15T07:02:12;21.80;;;14.48;;
10947;SDS011;5526;42.070;24.752;2023-02-15T07:04:40;16.30;;;13.13;;
10947;SDS011;5526;42.070;24.752;2023-02-15T07:07:07;15.60;;;13.13;;
10947;SDS011;5526;42.070;24.752;2023-02-15T07:09:36;15.65;;;13.55;;
10947;SDS011;5526;42.070;24.752;2023-02-15T07:12:05;14.75;;;13.15;;
10947;SDS011;5526;42.070;24.752;2023-02-15T07:14:50;15.27;;;13.27;;
10947;SDS011;5526;42.070;24.752;2023-02-15T07:17:17;14.98;;;12.15;;
10947;SDS011;5526;42.070;24.752;2023-02-15T07:19:44;14.82;;;12.68;;
10947;SDS011;5526;42.070;24.752;2023-02-15T07:22:11;15.60;;;12.95;;
10947;SDS011;5526;42.070;24.752;2023-02-15T07:24:38;14.25;;;12.75;;
10947;SDS011;5526;42.070;24.752;2023-02-15T07:27:07;15.93;;;13.27;;
10947;SDS011;5526;42.070;24.752;2023-02-15T07:29:34;16.05;;;13.48;;
10947;SDS011;5526;42.070;24.752;2023-02-15T07:32:01;16.02;;;13.65;;
10947;SDS011;5526;42.070;24.752;2023-02-15T07:34:28;16.42;;;13.80;;
10947;SDS011;5526;42.070;24.752;2023-02-15T07:36:55;17.08;;;13.40;;
10947;SDS011;5526;42.070;24.752;2023-02-15T07:39:22;14.35;;;12.43;;
10947;SDS011;5526;42.070;24.752;2023-02-15T07:41:49;15.15;;;12.68;;
10947;SDS011;5526;42.070;24.752;2023-02-15T07:44:17;15.55;;;13.57;;
10947;SDS011;5526;42.070;24.752;2023-02-15T07:46:45;22.23;;;14.20;;
10947;SDS011;5526;42.070;24.752;2023-02-15T07:49:12;14.48;;;12.77;;
10947;SDS011;5526;42.070;24.752;2023-02-15T07:51:40;13.88;;;12.07;;
10947;SDS011;5526;42.070;24.752;2023-02-15T07:54:07;14.20;;;12.70;;
10947;SDS011;5526;42.070;24.752;2023-02-15T07:56:34;15.43;;;13.38;;
10947;SDS011;5526;42.070;24.752;2023-02-15T07:59:01;15.52;;;13.93;;
10947;SDS011;5526;42.070;24.752;2023-02-15T08:01:32;14.77;;;12.57;;
10947;SDS011;5526;42.070;24.752;2023-02-15T08:04:00;18.50;;;12.93;;
10947;SDS011;5526;42.070;24.752;2023-02-15T08:06:28;14.88;;;13.27;;
10947;SDS011;5526;42.070;24.752;2023-02-15T08:08:56;15.48;;;12.90;;
10947;SDS011;5526;42.070;24.752;2023-02-15T08:11:24;14.40;;;12.90;;
10947;SDS011;5526;42.070;24.752;2023-02-15T08:13:55;14.75;;;13.20;;
10947;SDS011;5526;42.070;24.752;2023-02-15T08:16:25;13.80;;;12.40;;
10947;SDS011;5526;42.070;24.752;2023-02-15T08:18:55;14.55;;;12.15;;
10947;SDS011;5526;42.070;24.752;2023-02-15T08:21:24;13.77;;;12.38;;
10947;SDS011;5526;42.070;24.752;2023-02-15T08:23:53;13.85;;;11.90;;
10947;SDS011;5526;42.070;24.752;2023-02-15T08:26:20;13.60;;;12.20;;
10947;SDS011;5526;42.070;24.752;2023-02-15T08:28:47;14.95;;;13.43;;
10947;SDS011;5526;42.070;24.752;2023-02-15T08:31:15;12.60;;;11.30;;
10947;SDS011;5526;42.070;24.752;2023-02-15T08:33:43;13.70;;;12.00;;
10947;SDS011;5526;42.070;24.752;2023-02-15T08:36:13;14.63;;;12.88;;
10947;SDS011;5526;42.070;24.752;2023-02-15T08:38:42;16.05;;;12.95;;
10947;SDS011;5526;42.070;24.752;2023-02-15T08:41:10;13.88;;;12.55;;
10947;SDS011;5526;42.070;24.752;2023-02-15T08:43:39;15.40;;;13.00;;
10947;SDS011;5526;42.070;24.752;2023-02-15T08:46:06;13.88;;;12.02;;
10947;SDS011;5526;42.070;24.752;2023-02-15T08:48:34;14.43;;;12.93;;
10947;SDS011;5526;42.070;24.752;2023-02-15T08:51:05;12.00;;;10.43;;
10947;SDS011;5526;42.070;24.752;2023-02-15T08:53:35;13.98;;;12.60;;
10947;SDS011;5526;42.070;24.752;2023-02-15T08:56:02;15.35;;;12.55;;
10947;SDS011;5526;42.070;24.752;2023-02-15T08:58:29;14.73;;;13.10;;
10947;SDS011;5526;42.070;24.752;2023-02-15T09:00:57;18.40;;;13.43;;
10947;SDS011;5526;42.070;24.752;2023-02-15T09:03:24;14.18;;;12.55;;
10947;SDS011;5526;42.070;24.752;2023-02-15T09:05:56;14.65;;;13.15;;
10947;SDS011;5526;42.070;24.752;2023-02-15T09:08:24;15.20;;;13.32;;
10947;SDS011;5526;42.070;24.752;2023-02-15T09:10:53;16.92;;;12.70;;
10947;SDS011;5526;42.070;24.752;2023-02-15T09:13:21;17.20;;;13.90;;
10947;SDS011;5526;42.070;24.752;2023-02-15T09:15:47;18.70;;;15.07;;
10947;SDS011;5526;42.070;24.752;2023-02-15T09:18:15;17.13;;;13.73;;
10947;SDS011;5526;42.070;24.752;2023-02-15T09:20:42;16.88;;;14.38;;
10947;SDS011;5526;42.070;24.752;2023-02-15T09:23:10;14.40;;;12.75;;
10947;SDS011;5526;42.070;24.752;2023-02-15T09:25:37;14.25;;;12.55;;
10947;SDS011;5526;42.070;24.752;2023-02-15T09:28:06;12.68;;;11.40;;
10947;SDS011;5526;42.070;24.752;2023-02-15T09:30:33;16.10;;;12.50;;
10947;SDS011;5526;42.070;24.752;2023-02-15T09:33:00;13.98;;;12.48;;
10947;SDS011;5526;42.070;24.752;2023-02-15T09:35:27;13.65;;;11.07;;
10947;SDS011;5526;42.070;24.752;2023-02-15T09:37:54;17.75;;;14.30;;
10947;SDS011;5526;42.070;24.752;2023-02-15T09:40:21;18.15;;;13.20;;
10947;SDS011;5526;42.070;24.752;2023-02-15T09:43:01;16.33;;;14.75;;
10947;SDS011;5526;42.070;24.752;2023-02-15T09:45:48;14.00;;;11.63;;
10947;SDS011;5526;42.070;24.752;2023-02-15T09:48:32;14.05;;;12.50;;
10947;SDS011;5526;42.070;24.752;2023-02-15T09:51:22;16.30;;;13.80;;
10947;SDS011;5526;42.070;24.752;2023-02-15T09:57:15;15.95;;;13.57;;
10947;SDS011;5526;42.070;24.752;2023-02-15T09:59:54;18.38;;;15.45;;
10947;SDS011;5526;42.070;24.752;2023-02-15T10:02:33;13.23;;;11.88;;
10947;SDS011;5526;42.070;24.752;2023-02-15T10:05:15;15.60;;;12.93;;
10947;SDS011;5526;42.070;24.752;2023-02-15T10:10:57;15.38;;;13.77;;
10947;SDS011;5526;42.070;24.752;2023-02-15T10:13:50;13.90;;;11.90;;
10947;SDS011;5526;42.070;24.752;2023-02-15T10:16:31;16.17;;;14.35;;
10947;SDS011;5526;42.070;24.752;2023-02-15T10:19:10;18.05;;;15.15;;
10947;SDS011;5526;42.070;24.752;2023-02-15T10:21:48;18.02;;;15.27;;
10947;SDS011;5526;42.070;24.752;2023-02-15T10:24:38;16.63;;;14.98;;
10947;SDS011;5526;42.070;24.752;2023-02-15T10:27:15;15.52;;;14.00;;
10947;SDS011;5526;42.070;24.752;2023-02-15T10:29:48;14.30;;;12.82;;
10947;SDS011;5526;42.070;24.752;2023-02-15T10:32:22;15.90;;;14.30;;
10947;SDS011;5526;42.070;24.752;2023-02-15T10:34:51;13.77;;;12.30;;
10947;SDS011;5526;42.070;24.752;2023-02-15T10:37:29;15.77;;;14.07;;
10947;SDS011;5526;42.070;24.752;2023-02-15T10:40:13;15.98;;;14.38;;
10947;SDS011;5526;42.070;24.752;2023-02-15T10:42:53;14.75;;;13.15;;
10947;SDS011;5526;42.070;24.752;2023-02-15T10:45:40;14.75;;;13.25;;
10947;SDS011;5526;42.070;24.752;2023-02-15T10:51:19;15.10;;;13.50;;
10947;SDS011;5526;42.070;24.752;2023-02-15T10:54:01;15.85;;;14.05;;
10947;SDS011;5526;42.070;24.752;2023-02-15T10:56:41;14.57;;;13.05;;
10947;SDS011;5526;42.070;24.752;2023-02-15T10:59:30;15.77;;;13.90;;
10947;SDS011;5526;42.070;24.752;2023-02-15T11:02:09;15.02;;;13.40;;
10947;SDS011;5526;42.070;24.752;2023-02-15T11:04:48;15.05;;;13.15;;
10947;SDS011;5526;42.070;24.752;2023-02-15T11:07:21;16.10;;;13.63;;
10947;SDS011;5526;42.070;24.752;2023-02-15T11:09:55;15.00;;;13.00;;
10947;SDS011;5526;42.070;24.752;2023-02-15T11:12:28;16.25;;;14.65;;
10947;SDS011;5526;42.070;24.752;2023-02-15T11:14:58;14.98;;;13.48;;
10947;SDS011;5526;42.070;24.752;2023-02-15T11:17:30;14.32;;;12.95;;
10947;SDS011;5526;42.070;24.752;2023-02-15T11:20:05;16.90;;;13.40;;
10947;SDS011;5526;42.070;24.752;2023-02-15T11:22:43;14.43;;;13.02;;
10947;SDS011;5526;42.070;24.752;2023-02-15T11:25:16;14.02;;;12.60;;
10947;SDS011;5526;42.070;24.752;2023-02-15T11:27:46;13.70;;;12.30;;
10947;SDS011;5526;42.070;24.752;2023-02-15T11:32:45;15.10;;;13.60;;
10947;SDS011;5526;42.070;24.752;2023-02-15T11:35:18;15.48;;;13.90;;
10947;SDS011;5526;42.070;24.752;2023-02-15T11:37:53;15.20;;;13.70;;
10947;SDS011;5526;42.070;24.752;2023-02-15T11:40:26;14.98;;;13.18;;
10947;SDS011;5526;42.070;24.752;2023-02-15T11:42:56;15.02;;;13.18;;
10947;SDS011;5526;42.070;24.752;2023-02-15T11:45:27;14.20;;;12.77;;
10947;SDS011;5526;42.070;24.752;2023-02-15T11:47:56;15.18;;;13.57;;
10947;SDS011;5526;42.070;24.752;2023-02-15T11:50:25;16.73;;;15.02;;
10947;SDS011;5526;42.070;24.752;2023-02-15T11:52:56;15.02;;;13.52;;
10947;SDS011;5526;42.070;24.752;2023-02-15T11:55:26;18.05;;;16.15;;
10947;SDS011;5526;42.070;24.752;2023-02-15T11:57:55;14.60;;;13.18;;
10947;SDS011;5526;42.070;24.752;2023-02-15T12:00:29;14.00;;;12.70;;
10947;SDS011;5526;42.070;24.752;2023-02-15T12:03:02;15.02;;;12.60;;
10947;SDS011;5526;42.070;24.752;2023-02-15T12:05:37;14.75;;;13.30;;
10947;SDS011;5526;42.070;24.752;2023-02-15T12:08:12;17.17;;;14.48;;
10947;SDS011;5526;42.070;24.752;2023-02-15T12:10:46;15.77;;;14.13;;
10947;SDS011;5526;42.070;24.752;2023-02-15T12:13:24;15.27;;;13.70;;
10947;SDS011;5526;42.070;24.752;2023-02-15T12:15:53;14.70;;;13.25;;
10947;SDS011;5526;42.070;24.752;2023-02-15T12:18:32;14.40;;;13.00;;
10947;SDS011;5526;42.070;24.752;2023-02-15T12:21:03;14.27;;;12.90;;
10947;SDS011;5526;42.070;24.752;2023-02-15T12:23:40;15.57;;;13.45;;
10947;SDS011;5526;42.070;24.752;2023-02-15T12:26:11;14.27;;;12.82;;
10947;SDS011;5526;42.070;24.752;2023-02-15T12:28:40;13.90;;;12.60;;
10947;SDS011;5526;42.070;24.752;2023-02-15T12:31:10;14.32;;;12.80;;
10947;SDS011;5526;42.070;24.752;2023-02-15T12:33:47;14.60;;;13.20;;
10947;SDS011;5526;42.070;24.752;2023-02-15T12:36:17;14.38;;;12.98;;
10947;SDS011;5526;42.070;24.752;2023-02-15T12:41:30;14.43;;;12.93;;
10947;SDS011;5526;42.070;24.752;2023-02-15T12:44:05;12.85;;;11.48;;
10947;SDS011;5526;42.070;24.752;2023-02-15T12:46:33;13.82;;;12.32;;
10947;SDS011;5526;42.070;24.752;2023-02-15T12:49:07;12.25;;;10.95;;
10947;SDS011;5526;42.070;24.752;2023-02-15T12:51:46;13.90;;;11.48;;
10947;SDS011;5526;42.070;24.752;2023-02-15T12:54:26;11.88;;;10.60;;
10947;SDS011;5526;42.070;24.752;2023-02-15T12:56:56;11.73;;;10.60;;
10947;SDS011;5526;42.070;24.752;2023-02-15T12:59:23;13.32;;;11.93;;
10947;SDS011;5526;42.070;24.752;2023-02-15T13:01:51;12.82;;;11.63;;
10947;SDS011;5526;42.070;24.752;2023-02-15T13:04:21;12.45;;;11.15;;
10947;SDS011;5526;42.070;24.752;2023-02-15T13:06:51;11.57;;;10.43;;
10947;SDS011;5526;42.070;24.752;2023-02-15T13:09:21;11.63;;;10.52;;
10947;SDS011;5526;42.070;24.752;2023-02-15T13:12:14;13.98;;;11.70;;
10947;SDS011;5526;42.070;24.752;2023-02-15T13:14:44;13.05;;;10.85;;
10947;SDS011;5526;42.070;24.752;2023-02-15T13:17:16;12.60;;;11.30;;
10947;SDS011;5526;42.070;24.752;2023-02-15T13:19:44;12.50;;;11.20;;
10947;SDS011;5526;42.070;24.752;2023-02-15T13:22:14;13.07;;;11.73;;
10947;SDS011;5526;42.070;24.752;2023-02-15T13:24:47;14.30;;;12.93;;
10947;SDS011;5526;42.070;24.752;2023-02-15T13:27:17;13.68;;;12.38;;
10947;SDS011;5526;42.070;24.752;2023-02-15T13:29:49;12.90;;;11.60;;
10947;SDS011;5526;42.070;24.752;2023-02-15T13:32:22;15.13;;;13.52;;
10947;SDS011;5526;42.070;24.752;2023-02-15T13:34:53;13.52;;;12.05;;
10947;SDS011;5526;42.070;24.752;2023-02-15T13:37:33;12.00;;;10.77;;
10947;SDS011;5526;42.070;24.752;2023-02-15T13:40:19;12.27;;;10.98;;
10947;SDS011;5526;42.070;24.752;2023-02-15T13:42:52;11.95;;;10.75;;
10947;SDS011;5526;42.070;24.752;2023-02-15T13:45:27;12.20;;;11.00;;
10947;SDS011;5526;42.070;24.752;2023-02-15T13:48:00;13.98;;;11.25;;
10947;SDS011;5526;42.070;24.752;2023-02-15T13:53:34;11.55;;;10.35;;
10947;SDS011;5526;42.070;24.752;2023-02-15T13:56:16;13.85;;;11.75;;
10947;SDS011;5526;42.070;24.752;2023-02-15T13:58:57;14.20;;;11.77;;
10947;SDS011;5526;42.070;24.752;2023-02-15T14:01:37;12.40;;;11.10;;
10947;SDS011;5526;42.070;24.752;2023-02-15T14:04:25;14.18;;;12.75;;
10947;SDS011;5526;42.070;24.752;2023-02-15T14:07:22;12.90;;;11.60;;
10947;SDS011;5526;42.070;24.752;2023-02-15T14:10:09;12.38;;;11.18;;
10947;SDS011;5526;42.070;24.752;2023-02-15T14:12:56;16.48;;;13.88;;
10947;SDS011;5526;42.070;24.752;2023-02-15T14:15:35;14.38;;;12.38;;
10947;SDS011;5526;42.070;24.752;2023-02-15T14:18:12;18.10;;;13.48;;
10947;SDS011;5526;42.070;24.752;2023-02-15T14:20:49;16.73;;;11.68;;
10947;SDS011;5526;42.070;24.752;2023-02-15T14:23:27;35.08;;;11.00;;
10947;SDS011;5526;42.070;24.752;2023-02-15T14:26:04;11.02;;;9.80;;
10947;SDS011;5526;42.070;24.752;2023-02-15T14:28:40;13.07;;;9.90;;
10947;SDS011;5526;42.070;24.752;2023-02-15T14:31:11;11.88;;;10.77;;
10947;SDS011;5526;42.070;24.752;2023-02-15T14:33:41;13.63;;;10.95;;
10947;SDS011;5526;42.070;24.752;2023-02-15T14:36:13;12.63;;;10.82;;
10947;SDS011;5526;42.070;24.752;2023-02-15T14:38:48;12.10;;;10.82;;
10947;SDS011;5526;42.070;24.752;2023-02-15T14:41:24;11.98;;;10.77;;
10947;SDS011;5526;42.070;24.752;2023-02-15T14:43:58;13.05;;;11.63;;
10947;SDS011;5526;42.070;24.752;2023-02-15T14:46:34;15.57;;;11.63;;
10947;SDS011;5526;42.070;24.752;2023-02-15T14:49:11;13.73;;;11.00;;
10947;SDS011;5526;42.070;24.752;2023-02-15T14:51:56;13.25;;;11.85;;
10947;SDS011;5526;42.070;24.752;2023-02-15T14:57:21;14.80;;;12.23;;
10947;SDS011;5526;42.070;24.752;2023-02-15T14:59:53;12.13;;;10.93;;
10947;SDS011;5526;42.070;24.752;2023-02-15T15:02:23;12.38;;;11.07;;
10947;SDS011;5526;42.070;24.752;2023-02-15T15:04:56;12.35;;;11.15;;
10947;SDS011;5526;42.070;24.752;2023-02-15T15:07:27;11.73;;;10.55;;
10947;SDS011;5526;42.070;24.752;2023-02-15T15:10:04;15.57;;;13.98;;
10947;SDS011;5526;42.070;24.752;2023-02-15T15:12:41;13.65;;;11.13;;